createdAt,value
2019-02-14T00:00:06.708Z,17.20
2019-02-14T00:02:36.178Z,20.03
2019-02-14T00:05:05.743Z,18.47
2019-02-14T00:07:35.084Z,19.77
2019-02-14T00:10:04.604Z,19.80
2019-02-14T00:12:34.033Z,18.60
2019-02-14T00:15:03.499Z,16.30
2019-02-14T00:17:32.758Z,17.90
2019-02-14T00:20:02.097Z,18.40
2019-02-14T00:22:31.437Z,18.13
2019-02-14T00:25:00.711Z,19.20
2019-02-14T00:27:30.124Z,18.80
2019-02-14T00:29:59.463Z,18.67
2019-02-14T00:32:28.798Z,16.87
2019-02-14T00:34:58.230Z,19.80
2019-02-14T00:37:27.528Z,16.97
2019-02-14T00:39:56.839Z,19.07
2019-02-14T00:42:26.584Z,17.20
2019-02-14T00:44:56.045Z,18.70
2019-02-14T00:47:25.440Z,17.87
2019-02-14T00:49:54.752Z,20.93
2019-02-14T00:52:24.114Z,17.03
2019-02-14T00:54:53.479Z,17.43
2019-02-14T00:57:22.726Z,17.33
2019-02-14T00:59:52.124Z,18.23
2019-02-14T01:02:21.630Z,18.87
2019-02-14T01:04:51.089Z,18.20
2019-02-14T01:07:24.278Z,20.77
2019-02-14T01:09:53.758Z,16.80
2019-02-14T01:12:23.429Z,19.40
2019-02-14T01:14:52.960Z,17.80
2019-02-14T01:17:22.624Z,19.97
2019-02-14T01:19:51.960Z,20.67
2019-02-14T01:22:21.249Z,18.77
2019-02-14T01:24:52.360Z,18.40
2019-02-14T01:27:21.746Z,21.83
2019-02-14T01:29:51.093Z,18.77
2019-02-14T01:32:20.450Z,20.00
2019-02-14T01:34:49.749Z,20.37
2019-02-14T01:37:19.012Z,23.43
2019-02-14T01:39:48.419Z,19.30
2019-02-14T01:42:17.751Z,20.93
2019-02-14T01:44:47.269Z,20.80
2019-02-14T01:47:16.639Z,19.50
2019-02-14T01:49:46.026Z,19.47
2019-02-14T01:52:15.420Z,22.27
2019-02-14T01:54:44.744Z,21.20
2019-02-14T01:57:14.026Z,22.20
2019-02-14T01:59:45.769Z,21.83
2019-02-14T02:02:15.111Z,18.73
2019-02-14T02:04:44.450Z,17.70
2019-02-14T02:07:13.872Z,18.13
2019-02-14T02:09:43.324Z,18.13
2019-02-14T02:12:12.672Z,21.57
2019-02-14T02:14:42.063Z,17.30
2019-02-14T02:17:11.448Z,20.63
2019-02-14T02:19:40.799Z,17.50
2019-02-14T02:22:10.190Z,18.37
2019-02-14T02:24:39.572Z,19.60
2019-02-14T02:27:09.293Z,16.30
2019-02-14T02:29:38.684Z,18.97
2019-02-14T02:32:07.926Z,17.33
2019-02-14T02:34:37.335Z,17.17
2019-02-14T02:37:06.620Z,15.17
2019-02-14T02:39:36.094Z,17.80
2019-02-14T02:42:05.351Z,17.93
2019-02-14T02:44:34.656Z,15.50
2019-02-14T02:47:03.951Z,15.23
2019-02-14T02:49:33.234Z,16.70
2019-02-14T02:52:02.529Z,14.10
2019-02-14T02:54:31.823Z,14.80
2019-02-14T02:57:01.178Z,15.20
2019-02-14T02:59:31.024Z,13.73
2019-02-14T03:02:00.442Z,16.27
2019-02-14T03:04:32.851Z,15.40
2019-02-14T03:07:02.182Z,17.30
2019-02-14T03:09:31.612Z,13.83
2019-02-14T03:12:00.958Z,15.20
2019-02-14T03:14:30.304Z,16.30
2019-02-14T03:16:59.613Z,15.40
2019-02-14T03:19:28.987Z,13.77
2019-02-14T03:21:58.337Z,13.73
2019-02-14T03:24:27.770Z,15.80
2019-02-14T03:26:57.111Z,15.50
2019-02-14T03:29:26.452Z,16.33
2019-02-14T03:31:55.775Z,14.60
2019-02-14T03:34:25.213Z,13.53
2019-02-14T03:36:54.533Z,11.40
2019-02-14T03:39:23.918Z,15.33
2019-02-14T03:41:53.224Z,12.07
2019-02-14T03:44:22.674Z,15.80
2019-02-14T03:46:52.089Z,16.77
2019-02-14T03:49:21.318Z,17.43
2019-02-14T03:51:50.693Z,19.17
2019-02-14T03:54:20.029Z,17.07
2019-02-14T03:56:49.305Z,16.80
2019-02-14T03:59:18.757Z,15.53
2019-02-14T04:01:48.104Z,15.97
2019-02-14T04:04:17.470Z,16.60
2019-02-14T04:06:46.774Z,14.97
2019-02-14T04:09:16.029Z,15.33
2019-02-14T04:11:45.350Z,16.20
2019-02-14T04:14:14.751Z,15.10
2019-02-14T04:16:44.112Z,18.13
2019-02-14T04:19:13.364Z,16.20
2019-02-14T04:21:42.731Z,12.63
2019-02-14T04:24:12.009Z,14.77
2019-02-14T04:26:42.217Z,14.87
2019-02-14T04:29:11.632Z,16.20
2019-02-14T04:31:41.104Z,16.03
2019-02-14T04:34:10.399Z,18.63
2019-02-14T04:36:39.729Z,17.27
2019-02-14T04:39:09.266Z,19.03
2019-02-14T04:41:38.664Z,16.43
2019-02-14T04:44:08.042Z,16.17
2019-02-14T04:46:37.456Z,16.97
2019-02-14T04:49:06.764Z,16.20
2019-02-14T04:51:36.109Z,17.20
2019-02-14T04:54:05.470Z,17.00
2019-02-14T04:56:34.864Z,14.10
2019-02-14T04:59:06.461Z,14.03
2019-02-14T05:01:35.801Z,16.10
2019-02-14T05:04:05.202Z,17.90
2019-02-14T05:06:34.530Z,15.47
2019-02-14T05:09:05.332Z,17.80
2019-02-14T05:11:34.711Z,15.50
2019-02-14T05:14:04.072Z,15.70
2019-02-14T05:16:33.431Z,14.80
2019-02-14T05:19:02.780Z,15.93
2019-02-14T05:21:32.216Z,16.77
2019-02-14T05:24:01.637Z,16.30
2019-02-14T05:26:30.971Z,15.00
2019-02-14T05:29:00.296Z,17.27
2019-02-14T05:31:29.726Z,18.00
2019-02-14T05:33:58.978Z,14.03
2019-02-14T05:36:28.431Z,15.67
2019-02-14T05:38:57.803Z,17.10
2019-02-14T05:41:27.258Z,13.87
2019-02-14T05:43:56.686Z,13.23
2019-02-14T05:46:26.008Z,16.27
2019-02-14T05:48:55.353Z,19.60
2019-02-14T05:51:24.684Z,16.77
2019-02-14T05:53:53.998Z,18.00
2019-02-14T05:56:24.597Z,16.13
2019-02-14T05:58:54.001Z,15.93
2019-02-14T06:01:24.066Z,17.20
2019-02-14T06:03:53.389Z,19.20
2019-02-14T06:06:22.817Z,17.83
2019-02-14T06:08:52.184Z,15.90
2019-02-14T06:11:21.932Z,15.67
2019-02-14T06:13:51.718Z,16.90
2019-02-14T06:16:21.122Z,18.50
2019-02-14T06:18:50.522Z,16.20
2019-02-14T06:21:19.896Z,16.23
2019-02-14T06:23:49.314Z,16.47
2019-02-14T06:26:18.708Z,15.80
2019-02-14T06:28:48.088Z,16.80
2019-02-14T06:31:17.401Z,16.47
2019-02-14T06:33:46.728Z,15.40
2019-02-14T06:36:16.169Z,14.30
2019-02-14T06:38:45.614Z,15.17
2019-02-14T06:41:14.957Z,17.47
2019-02-14T06:43:44.382Z,16.30
2019-02-14T06:46:13.796Z,16.97
2019-02-14T06:48:43.211Z,16.47
2019-02-14T06:51:12.631Z,14.27
2019-02-14T06:53:42.060Z,20.40
2019-02-14T06:56:11.494Z,18.30
2019-02-14T06:58:41.301Z,16.73
2019-02-14T07:01:10.751Z,15.40
2019-02-14T07:03:41.214Z,15.70
2019-02-14T07:06:11.774Z,16.03
2019-02-14T07:08:41.663Z,17.07
2019-02-14T07:11:11.169Z,15.90
2019-02-14T07:13:40.650Z,17.20
2019-02-14T07:16:10.104Z,18.57
2019-02-14T07:18:40.274Z,17.50
2019-02-14T07:21:09.677Z,17.07
2019-02-14T07:23:40.294Z,18.50
2019-02-14T07:26:10.070Z,19.20
2019-02-14T07:28:41.742Z,16.20
2019-02-14T07:31:11.231Z,19.20
2019-02-14T07:33:40.756Z,20.47
2019-02-14T07:36:10.340Z,17.50
2019-02-14T07:38:39.803Z,18.37
2019-02-14T07:41:09.209Z,19.10
2019-02-14T07:43:38.685Z,17.63
2019-02-14T07:46:08.108Z,18.50
2019-02-14T07:48:37.822Z,20.73
2019-02-14T07:51:07.339Z,18.90
2019-02-14T07:53:36.927Z,17.97
2019-02-14T07:56:06.601Z,23.03
2019-02-14T07:58:36.117Z,21.53
2019-02-14T08:01:06.302Z,20.30
2019-02-14T08:03:35.791Z,19.70
2019-02-14T08:06:09.705Z,21.27
2019-02-14T08:08:46.871Z,18.80
2019-02-14T08:11:16.247Z,19.57
2019-02-14T08:13:47.468Z,18.70
2019-02-14T08:16:34.550Z,20.70
2019-02-14T08:19:03.942Z,19.87
2019-02-14T08:24:55.478Z,17.80
2019-02-14T08:27:25.531Z,21.60
2019-02-14T08:30:00.313Z,20.87
2019-02-14T08:32:37.754Z,21.07
2019-02-14T08:35:07.349Z,21.87
2019-02-14T08:37:45.029Z,17.50
2019-02-14T08:40:10.220Z,18.83
2019-02-14T08:42:58.872Z,17.07
2019-02-14T08:45:29.282Z,18.90
2019-02-14T08:47:58.652Z,18.10
2019-02-14T08:50:29.628Z,20.10
2019-02-14T08:53:01.270Z,20.73
2019-02-14T08:55:30.604Z,19.73
2019-02-14T08:58:04.353Z,22.77
2019-02-14T09:00:52.738Z,22.47
2019-02-14T09:03:22.099Z,19.33
2019-02-14T09:05:51.543Z,18.23
2019-02-14T09:08:20.895Z,16.57
2019-02-14T09:10:50.221Z,16.23
2019-02-14T09:13:38.654Z,17.83
2019-02-14T09:16:10.841Z,18.10
2019-02-14T09:18:59.246Z,16.90
2019-02-14T09:21:30.120Z,16.40
2019-02-14T09:24:02.619Z,16.30
2019-02-14T09:26:33.540Z,17.10
2019-02-14T09:29:15.239Z,16.03
2019-02-14T09:31:44.567Z,15.53
2019-02-14T09:34:13.926Z,16.87
2019-02-14T09:36:44.528Z,16.10
2019-02-14T09:39:30.141Z,14.87
2019-02-14T09:42:07.633Z,14.70
2019-02-14T09:44:38.013Z,16.23
2019-02-14T09:47:10.459Z,13.70
2019-02-14T09:50:48.196Z,14.90
2019-02-14T09:54:09.631Z,12.07
2019-02-14T09:56:40.562Z,12.23
2019-02-14T09:59:09.851Z,16.23
2019-02-14T10:01:39.129Z,12.03
2019-02-14T10:04:27.485Z,10.77
2019-02-14T10:06:56.760Z,11.97
2019-02-14T10:09:26.020Z,13.47
2019-02-14T10:11:55.291Z,12.30
2019-02-14T10:14:30.646Z,10.77
2019-02-14T10:16:59.920Z,10.83
2019-02-14T10:19:29.207Z,11.30
2019-02-14T10:21:58.420Z,9.80
2019-02-14T10:24:28.874Z,10.37
2019-02-14T10:26:58.164Z,8.40
2019-02-14T10:29:27.391Z,8.70
2019-02-14T10:32:15.673Z,10.10
2019-02-14T10:34:45.942Z,11.17
2019-02-14T10:37:15.165Z,9.07
2019-02-14T10:39:44.406Z,8.67
2019-02-14T10:42:13.769Z,10.30
2019-02-14T10:44:43.177Z,9.23
2019-02-14T10:47:12.382Z,8.37
2019-02-14T10:49:42.189Z,8.73
2019-02-14T10:52:12.142Z,12.40
2019-02-14T10:54:41.529Z,11.80
2019-02-14T10:57:29.960Z,10.13
2019-02-14T10:59:59.365Z,11.57
2019-02-14T11:02:28.564Z,8.77
2019-02-14T11:04:59.738Z,8.50
2019-02-14T11:07:29.005Z,9.87
2019-02-14T11:09:59.704Z,7.93
2019-02-14T11:12:29.047Z,9.07
2019-02-14T11:14:58.593Z,7.87
2019-02-14T11:17:48.923Z,8.70
2019-02-14T11:20:19.037Z,11.10
2019-02-14T11:22:49.193Z,7.87
2019-02-14T11:25:21.857Z,7.60
2019-02-14T11:27:52.977Z,9.13
2019-02-14T11:30:24.231Z,8.50
2019-02-14T11:32:54.375Z,9.30
2019-02-14T11:35:42.822Z,8.10
2019-02-14T11:38:12.047Z,6.60
2019-02-14T11:40:41.307Z,8.97
2019-02-14T11:43:10.700Z,6.87
2019-02-14T11:45:41.460Z,6.50
2019-02-14T11:48:14.641Z,8.60
2019-02-14T11:50:44.234Z,7.03
2019-02-14T11:53:14.143Z,7.20
2019-02-14T11:55:43.714Z,6.80
2019-02-14T11:58:13.010Z,6.67
2019-02-14T12:00:42.207Z,5.60
2019-02-14T12:03:34.952Z,6.73
2019-02-14T12:06:05.094Z,6.60
2019-02-14T12:08:35.207Z,5.13
2019-02-14T12:11:05.630Z,6.43
2019-02-14T12:13:35.451Z,4.80
2019-02-14T12:16:05.273Z,7.30
2019-02-14T12:18:34.573Z,5.73
2019-02-14T12:21:03.834Z,4.93
2019-02-14T12:23:33.094Z,5.30
2019-02-14T12:26:02.438Z,5.40
2019-02-14T12:28:31.709Z,3.50
2019-02-14T12:31:00.937Z,4.83
2019-02-14T12:33:30.209Z,4.47
2019-02-14T12:35:59.644Z,3.47
2019-02-14T12:38:28.985Z,4.63
2019-02-14T12:41:00.541Z,3.43
2019-02-14T12:43:30.892Z,3.83
2019-02-14T12:46:02.312Z,4.00
2019-02-14T12:48:50.632Z,3.00
2019-02-14T12:51:19.931Z,4.57
2019-02-14T12:53:49.246Z,3.50
2019-02-14T12:56:19.608Z,5.10
2019-02-14T12:58:48.895Z,3.90
2019-02-14T13:01:18.446Z,5.20
2019-02-14T13:03:47.816Z,4.20
2019-02-14T13:06:18.066Z,4.00
2019-02-14T13:08:47.529Z,3.80
2019-02-14T13:11:17.071Z,4.00
2019-02-14T13:13:49.981Z,4.60
2019-02-14T13:16:17.670Z,9.47
2019-02-14T13:19:41.176Z,7.53
2019-02-14T13:22:11.109Z,4.77
2019-02-14T13:24:41.748Z,3.13
2019-02-14T13:27:15.089Z,4.30
2019-02-14T13:30:02.935Z,4.80
2019-02-14T13:32:32.254Z,4.80
2019-02-14T13:35:01.641Z,5.07
2019-02-14T13:37:32.382Z,4.00
2019-02-14T13:40:02.763Z,4.10
2019-02-14T13:42:32.400Z,6.07
2019-02-14T13:45:02.038Z,4.57
2019-02-14T13:47:34.211Z,4.37
2019-02-14T13:50:03.522Z,4.00
2019-02-14T13:52:33.752Z,5.60
2019-02-14T13:55:03.916Z,4.83
2019-02-14T13:57:35.999Z,3.93
2019-02-14T14:00:08.228Z,4.53
2019-02-14T14:02:44.227Z,5.40
2019-02-14T14:05:15.374Z,5.50
2019-02-14T14:07:45.669Z,4.83
2019-02-14T14:10:15.075Z,4.73
2019-02-14T14:12:44.951Z,8.47
2019-02-14T14:15:14.877Z,4.50
2019-02-14T14:17:44.329Z,5.70
2019-02-14T14:20:13.692Z,4.80
2019-02-14T14:22:44.428Z,6.20
2019-02-14T14:25:13.880Z,5.50
2019-02-14T14:27:44.274Z,5.20
2019-02-14T14:30:13.638Z,5.23
2019-02-14T14:32:43.213Z,5.30
2019-02-14T14:35:14.086Z,5.20
2019-02-14T14:37:43.677Z,4.30
2019-02-14T14:40:13.010Z,4.60
2019-02-14T14:43:07.582Z,5.07
2019-02-14T14:45:52.186Z,6.37
2019-02-14T14:48:22.869Z,5.13
2019-02-14T14:50:52.497Z,5.30
2019-02-14T14:53:22.071Z,4.90
2019-02-14T14:55:51.759Z,5.10
2019-02-14T14:58:23.116Z,5.63
2019-02-14T15:00:52.902Z,4.70
2019-02-14T15:03:23.381Z,5.93
2019-02-14T15:05:53.722Z,5.60
2019-02-14T15:08:23.062Z,5.43
2019-02-14T15:10:52.365Z,5.20
2019-02-14T15:13:22.304Z,4.50
2019-02-14T15:15:51.902Z,8.53
2019-02-14T15:18:21.245Z,8.13
2019-02-14T15:20:50.702Z,5.43
2019-02-14T15:23:20.423Z,5.10
2019-02-14T15:25:49.795Z,4.80
2019-02-14T15:28:19.086Z,4.93
2019-02-14T15:30:48.408Z,5.30
2019-02-14T15:33:18.106Z,4.53
2019-02-14T15:35:47.475Z,5.87
2019-02-14T15:38:17.240Z,5.17
2019-02-14T15:41:05.650Z,5.20
2019-02-14T15:43:35.055Z,4.53
2019-02-14T15:46:04.476Z,4.20
2019-02-14T15:48:34.076Z,4.27
2019-02-14T15:51:03.537Z,4.63
2019-02-14T15:53:32.859Z,5.00
2019-02-14T15:56:03.409Z,5.80
2019-02-14T15:58:34.086Z,5.10
2019-02-14T16:01:04.680Z,4.90
2019-02-14T16:03:34.061Z,4.87
2019-02-14T16:06:04.508Z,5.10
2019-02-14T16:08:34.572Z,3.60
2019-02-14T16:11:22.998Z,4.27
2019-02-14T16:14:12.189Z,4.27
2019-02-14T16:16:43.328Z,5.70
2019-02-14T16:19:13.443Z,6.20
2019-02-14T16:21:42.886Z,5.90
2019-02-14T16:24:14.252Z,7.37
2019-02-14T16:26:43.450Z,7.03
2019-02-14T16:29:13.505Z,6.50
2019-02-14T16:31:42.930Z,5.90
2019-02-14T16:34:12.463Z,6.30
2019-02-14T16:36:42.362Z,4.93
2019-02-14T16:39:11.649Z,5.00
2019-02-14T16:41:41.097Z,5.20
2019-02-14T16:44:10.555Z,5.60
2019-02-14T16:46:40.024Z,6.10
2019-02-14T16:49:09.467Z,5.67
2019-02-14T16:51:38.969Z,6.90
2019-02-14T16:54:08.383Z,6.83
2019-02-14T16:56:37.848Z,7.50
2019-02-14T16:59:07.259Z,6.83
2019-02-14T17:01:36.938Z,5.63
2019-02-14T17:04:06.429Z,6.00
2019-02-14T17:06:35.797Z,5.80
2019-02-14T17:09:06.429Z,7.53
2019-02-14T17:11:36.091Z,6.40
2019-02-14T17:14:05.644Z,6.13
2019-02-14T17:16:36.178Z,6.50
2019-02-14T17:19:05.641Z,6.17
2019-02-14T17:21:35.200Z,6.17
2019-02-14T17:24:04.982Z,5.93
2019-02-14T17:26:34.845Z,6.13
2019-02-14T17:29:04.342Z,7.10
2019-02-14T17:31:34.296Z,5.93
2019-02-14T17:34:03.871Z,6.77
2019-02-14T17:36:33.643Z,6.07
2019-02-14T17:39:03.223Z,6.97
2019-02-14T17:41:33.020Z,5.07
2019-02-14T17:44:02.503Z,6.23
2019-02-14T17:46:32.130Z,6.97
2019-02-14T17:49:01.638Z,6.90
2019-02-14T17:51:31.311Z,7.70
2019-02-14T17:54:01.793Z,8.20
2019-02-14T17:56:31.511Z,6.03
2019-02-14T17:59:02.152Z,7.33
2019-02-14T18:01:31.869Z,7.37
2019-02-14T18:04:01.533Z,5.80
2019-02-14T18:06:31.233Z,6.87
2019-02-14T18:09:00.957Z,6.10
2019-02-14T18:11:30.596Z,6.33
2019-02-14T18:14:00.240Z,7.43
2019-02-14T18:16:30.453Z,6.80
2019-02-14T18:19:00.153Z,7.50
2019-02-14T18:21:29.864Z,6.17
2019-02-14T18:23:59.772Z,6.03
2019-02-14T18:26:29.573Z,8.27
2019-02-14T18:28:59.231Z,5.90
2019-02-14T18:31:28.893Z,5.93
2019-02-14T18:33:58.630Z,7.60
2019-02-14T18:36:28.802Z,6.40
2019-02-14T18:38:58.603Z,7.20
2019-02-14T18:41:28.164Z,7.10
2019-02-14T18:43:57.998Z,6.27
2019-02-14T18:46:28.758Z,8.00
2019-02-14T18:48:58.542Z,5.50
2019-02-14T18:51:28.300Z,8.37
2019-02-14T18:53:57.946Z,6.23
2019-02-14T18:56:27.692Z,6.77
2019-02-14T18:58:57.580Z,6.20
2019-02-14T19:01:27.258Z,7.43
2019-02-14T19:03:56.947Z,6.23
2019-02-14T19:06:26.682Z,7.33
2019-02-14T19:08:57.669Z,6.60
2019-02-14T19:11:27.389Z,6.33
2019-02-14T19:13:57.159Z,8.50
2019-02-14T19:16:26.879Z,7.67
2019-02-14T19:18:58.657Z,7.30
2019-02-14T19:21:27.979Z,7.67
2019-02-14T19:23:57.763Z,7.70
2019-02-14T19:26:27.792Z,7.70
2019-02-14T19:28:57.571Z,7.70
2019-02-14T19:31:27.200Z,7.83
2019-02-14T19:33:56.783Z,7.63
2019-02-14T19:36:26.517Z,7.83
2019-02-14T19:38:56.417Z,8.50
2019-02-14T19:41:26.175Z,9.10
2019-02-14T19:43:56.725Z,9.00
2019-02-14T19:46:26.749Z,8.13
2019-02-14T19:48:56.476Z,7.90
2019-02-14T19:51:26.162Z,7.80
2019-02-14T19:53:55.830Z,8.07
2019-02-14T19:56:25.526Z,8.87
2019-02-14T19:58:55.290Z,6.70
2019-02-14T20:01:25.091Z,7.17
2019-02-14T20:03:54.962Z,7.57
2019-02-14T20:06:24.695Z,9.53
2019-02-14T20:08:54.309Z,7.20
2019-02-14T20:11:24.110Z,7.63
2019-02-14T20:13:53.952Z,6.80
2019-02-14T20:16:23.743Z,6.87
2019-02-14T20:18:53.356Z,7.43
2019-02-14T20:21:23.045Z,7.77
2019-02-14T20:23:52.798Z,7.87
2019-02-14T20:26:22.463Z,7.47
2019-02-14T20:28:52.305Z,7.67
2019-02-14T20:31:22.035Z,8.27
2019-02-14T20:33:51.616Z,7.50
2019-02-14T20:36:21.308Z,7.13
2019-02-14T20:38:50.860Z,6.97
2019-02-14T20:41:20.467Z,7.77
2019-02-14T20:43:50.346Z,6.73
2019-02-14T20:46:19.901Z,7.57
2019-02-14T20:48:49.621Z,6.70
2019-02-14T20:51:19.724Z,8.17
2019-02-14T20:53:49.426Z,8.20
2019-02-14T20:56:19.146Z,7.20
2019-02-14T20:58:48.819Z,7.40
2019-02-14T21:01:18.464Z,7.17
2019-02-14T21:03:48.159Z,6.53
2019-02-14T21:06:19.075Z,7.93
2019-02-14T21:08:48.736Z,7.80
2019-02-14T21:11:18.303Z,7.90
2019-02-14T21:13:48.058Z,8.47
2019-02-14T21:16:17.584Z,7.60
2019-02-14T21:18:47.296Z,7.23
2019-02-14T21:21:16.930Z,8.23
2019-02-14T21:23:46.564Z,6.33
2019-02-14T21:26:16.610Z,7.50
2019-02-14T21:28:46.579Z,7.47
2019-02-14T21:31:16.549Z,7.53
2019-02-14T21:33:46.225Z,7.13
2019-02-14T21:36:15.754Z,7.20
2019-02-14T21:38:45.709Z,7.63
2019-02-14T21:41:15.235Z,7.60
2019-02-14T21:43:44.990Z,6.97
2019-02-14T21:46:14.684Z,8.47
2019-02-14T21:48:44.052Z,8.80
2019-02-14T21:51:13.543Z,7.03
2019-02-14T21:53:43.552Z,6.47
2019-02-14T21:56:13.187Z,7.60
2019-02-14T21:58:42.677Z,6.93
2019-02-14T22:01:13.215Z,8.23
2019-02-14T22:03:42.514Z,7.10
2019-02-14T22:06:11.929Z,6.97
2019-02-14T22:08:42.428Z,8.43
2019-02-14T22:11:11.841Z,7.63
2019-02-14T22:13:41.189Z,8.20
2019-02-14T22:16:10.536Z,8.53
2019-02-14T22:18:40.006Z,7.93
2019-02-14T22:21:09.546Z,6.07
2019-02-14T22:23:38.867Z,7.77
2019-02-14T22:26:08.622Z,9.20
2019-02-14T22:28:38.071Z,7.33
2019-02-14T22:31:07.446Z,7.37
2019-02-14T22:33:36.869Z,7.57
2019-02-14T22:36:06.322Z,8.40
2019-02-14T22:38:35.713Z,8.60
2019-02-14T22:41:05.085Z,8.30
2019-02-14T22:43:34.427Z,7.90
2019-02-14T22:46:03.881Z,7.97
2019-02-14T22:48:33.372Z,8.00
2019-02-14T22:51:02.923Z,9.10
2019-02-14T22:53:32.404Z,9.27
2019-02-14T22:56:01.780Z,8.63
2019-02-14T22:58:31.151Z,9.77
2019-02-14T23:01:01.332Z,8.67
2019-02-14T23:03:30.726Z,7.53
2019-02-14T23:06:00.136Z,8.80
2019-02-14T23:08:29.559Z,9.20
2019-02-14T23:10:58.841Z,10.10
2019-02-14T23:13:28.226Z,11.30
2019-02-14T23:15:57.746Z,8.57
2019-02-14T23:18:27.323Z,10.30
2019-02-14T23:20:56.946Z,9.27
2019-02-14T23:23:26.302Z,9.07
2019-02-14T23:25:55.741Z,9.60
2019-02-14T23:28:25.442Z,10.00
2019-02-14T23:30:54.817Z,9.40
2019-02-14T23:33:24.116Z,8.13
2019-02-14T23:35:54.050Z,9.90
2019-02-14T23:38:23.468Z,12.60
2019-02-14T23:40:52.801Z,11.20
2019-02-14T23:43:22.201Z,9.73
2019-02-14T23:45:51.639Z,8.60
2019-02-14T23:48:20.908Z,9.37
2019-02-14T23:50:50.542Z,9.57
2019-02-14T23:53:20.004Z,10.33
2019-02-14T23:55:49.291Z,10.17
2019-02-14T23:58:18.716Z,9.03
